Aérodrome :
LOGIN :

S'inscrire | Disclaimer

   EN    FR    IT 

 










Légende :    VFR   VFR Marginal   IFR   IFR Intensif   IFR Très Intensif
Visi : 
Plafond : 
>= 8 km
>= 3000ft
5 à 8 km
1000 à 3000 ft
1500m à 5 km
500 à 1000 ft
800 à 1500m
200 à 500 ft
< 800m
< 200 ft
Symboles :   Orages  Brouillard  Fortes neiges  Fortes précipitations  Vent > 20 kt
SIGMETs :   Divers  Orages  Givrage  Turbulence  Onde Orograph.  Cendres Volcan.






- Altitude de l'aérodrome : 147 ft
- Code IATA : DUS


EDDL - Düsseldorf Int.

DERNIER METAR :
  • 101120Z VRB04KT CAVOK 33/16 Q1014 NOSIG

METARs EXPIRÉS :
  • 101050Z VRB03KT 9999 PO NSC 33/16 Q1014 NOSIG
  • 101020Z VRB04KT CAVOK 32/16 Q1014 NOSIG
  • 100950Z VRB03KT CAVOK 32/16 Q1014 NOSIG
  • 100920Z 21005KT 150V280 CAVOK 30/16 Q1015 NOSIG
  • 100850Z VRB04KT CAVOK 29/17 Q1015 NOSIG

TAF TAF EDDL
Valide du 10 à 12h jusqu'au 11 à 18h UTC


101100Z 1012/1118 06007KT CAVOK
PROB30
TEMPO 1013/1017 07015G35KT TSRA SCT070CB
TEMPO 1107/1112 12007KT
PROB30
TEMPO 1112/1118 26015G35KT TSRA SCT070CB



MET'MAP, la Météo Aéronautique d'un coup d'oeil ! - Copyright ORBIFLY Décembre 2007 - Disclaimer

ORBIFLY MET'MAP TEAM :

Programmation & Développement : Alexandra Zaïnal
Sur une idée originale de : Baudouin d'Aumeries
Assistance à la programmation : Marc-Olivier Méhu
Soutien technique & logistique : Manuel Goepfert

Contact : metmap@orbifly.com




SOURCES & CREDITS :

   NOAA